Bradford, Maine
Current Conditions -  °F | °C
As of 2:53 PM on Sunday 25 Jan 2015 (Local Time) from KBGR Reporting Station
Blowing Snow Blowing Snow  
Wind Chill: 10°   Ceiling: Unl
Heat Index: 23°   Visibility: 10mi
Dew Point:   Wind: 16mph
Humidity: 40%   Direction: 300°WNW
Pressure: 29.57"   Gusts: 28mph
Location:  45.07°N, 68.94°W
Report Text: KBGR 251953Z 30014G24KT 10SM BLSN FEW035 M05/M17 A2957 RMK AO2 SLP015 T10501167
Loading
Personal Weather Stations






























Interactive Weather Map New forecast layout! Learn more

10-Day Weather Forecast

Advertisements
Track Severe Weather on mobile